createdAt,value
2022-07-30T00:00:12.461Z,397.53
2022-07-30T00:00:57.590Z,401.33
2022-07-30T00:01:42.643Z,374.23
2022-07-30T00:02:27.779Z,402.28
2022-07-30T00:03:12.888Z,399.43
2022-07-30T00:03:57.854Z,402.28
2022-07-30T00:04:42.842Z,399.43
2022-07-30T00:05:27.893Z,397.53
2022-07-30T00:06:13.257Z,397.53
2022-07-30T00:06:58.246Z,383.26
2022-07-30T00:07:43.063Z,390.87
2022-07-30T00:08:28.331Z,398.48
2022-07-30T00:09:13.176Z,406.09
2022-07-30T00:09:58.229Z,412.75
2022-07-30T00:10:43.290Z,401.33
2022-07-30T00:11:28.425Z,405.14
2022-07-30T00:12:13.404Z,382.31
2022-07-30T00:12:58.360Z,400.38
2022-07-30T00:13:43.412Z,390.87
2022-07-30T00:14:28.468Z,397.53
2022-07-30T00:15:13.521Z,393.72
2022-07-30T00:15:58.578Z,398.48
2022-07-30T00:16:43.707Z,411.79
2022-07-30T00:17:28.691Z,381.36
2022-07-30T00:18:13.781Z,393.72
2022-07-30T00:18:58.810Z,387.07
2022-07-30T00:19:43.885Z,382.31
2022-07-30T00:20:29.032Z,392.77
2022-07-30T00:21:34.597Z,387.07
2022-07-30T00:21:59.032Z,388.02
2022-07-30T00:22:43.988Z,400.38
2022-07-30T00:23:29.150Z,385.17
2022-07-30T00:24:14.197Z,404.19
2022-07-30T00:24:59.164Z,401.33
2022-07-30T00:25:44.222Z,381.36
2022-07-30T00:26:29.270Z,393.72
2022-07-30T00:27:14.323Z,400.36
2022-07-30T00:27:59.382Z,396.58
2022-07-30T00:28:44.436Z,385.43
2022-07-30T00:29:29.597Z,389.92
2022-07-30T00:30:14.547Z,383.26
2022-07-30T00:30:59.687Z,398.48
2022-07-30T00:31:44.662Z,398.48
2022-07-30T00:32:29.717Z,380.76
2022-07-30T00:33:14.773Z,395.63
2022-07-30T00:33:59.847Z,394.68
2022-07-30T00:34:44.886Z,386.12
2022-07-30T00:35:29.939Z,381.36
2022-07-30T00:36:15.004Z,381.36
2022-07-30T00:37:00.186Z,396.58
2022-07-30T00:37:45.214Z,400.38
2022-07-30T00:38:30.166Z,376.61
2022-07-30T00:39:15.327Z,402.28
2022-07-30T00:40:00.382Z,385.43
2022-07-30T00:40:45.341Z,403.24
2022-07-30T00:41:30.393Z,395.63
2022-07-30T00:42:15.457Z,396.58
2022-07-30T00:43:00.645Z,391.82
2022-07-30T00:43:45.564Z,410.84
2022-07-30T00:44:30.616Z,415.60
2022-07-30T00:45:15.905Z,383.26
2022-07-30T00:46:00.787Z,401.33
2022-07-30T00:46:45.788Z,401.33
2022-07-30T00:47:30.843Z,384.21
2022-07-30T00:48:16.013Z,419.40
2022-07-30T00:49:01.003Z,395.69
2022-07-30T00:49:46.014Z,396.58
2022-07-30T00:50:31.175Z,396.58
2022-07-30T00:51:16.123Z,390.87
2022-07-30T00:52:01.234Z,395.63
2022-07-30T00:52:46.151Z,398.48
2022-07-30T00:53:31.292Z,408.94
2022-07-30T00:54:16.357Z,407.99
2022-07-30T00:55:01.457Z,406.09
2022-07-30T00:55:46.571Z,407.04
2022-07-30T00:56:31.521Z,391.03
2022-07-30T00:57:16.584Z,412.75
2022-07-30T00:58:01.789Z,399.43
2022-07-30T00:58:46.599Z,406.89
2022-07-30T00:59:31.649Z,434.62
2022-07-30T01:00:16.681Z,421.30
2022-07-30T01:01:01.844Z,399.43
2022-07-30T01:01:46.961Z,397.53
2022-07-30T01:02:31.918Z,397.53
2022-07-30T01:03:16.924Z,388.02
2022-07-30T01:04:02.122Z,415.60
2022-07-30T01:04:47.041Z,412.75
2022-07-30T01:05:32.094Z,417.50
2022-07-30T01:06:17.257Z,417.50
2022-07-30T01:07:02.633Z,402.28
2022-07-30T01:07:47.064Z,395.69
2022-07-30T01:08:32.324Z,404.19
2022-07-30T01:09:17.489Z,407.99
2022-07-30T01:10:02.434Z,403.16
2022-07-30T01:10:47.392Z,411.79
2022-07-30T01:11:32.647Z,394.68
2022-07-30T01:12:17.608Z,407.04
2022-07-30T01:13:02.799Z,382.31
2022-07-30T01:13:47.820Z,385.43
2022-07-30T01:14:32.769Z,402.28
2022-07-30T01:15:17.982Z,402.28
2022-07-30T01:16:03.104Z,428.91
2022-07-30T01:16:48.071Z,388.02
2022-07-30T01:17:33.000Z,424.16
2022-07-30T01:18:18.054Z,403.24
2022-07-30T01:19:03.237Z,420.35
2022-07-30T01:19:48.198Z,406.09
2022-07-30T01:20:33.224Z,408.94
2022-07-30T01:21:18.279Z,427.01
2022-07-30T01:22:03.644Z,403.24
2022-07-30T01:22:48.524Z,408.76
2022-07-30T01:23:33.451Z,408.94
2022-07-30T01:24:18.507Z,395.69
2022-07-30T01:25:03.779Z,422.26
2022-07-30T01:25:48.512Z,394.68
2022-07-30T01:26:33.575Z,405.14
2022-07-30T01:27:19.878Z,432.72
2022-07-30T01:28:03.823Z,400.38
2022-07-30T01:28:48.541Z,427.96
2022-07-30T01:29:33.591Z,400.38
2022-07-30T01:30:18.757Z,402.28
2022-07-30T01:31:03.946Z,424.16
2022-07-30T01:31:48.876Z,424.16
2022-07-30T01:32:34.032Z,418.45
2022-07-30T01:33:18.978Z,404.19
2022-07-30T01:34:04.139Z,407.99
2022-07-30T01:34:49.086Z,397.53
2022-07-30T01:35:34.147Z,393.72
2022-07-30T01:36:19.205Z,388.02
2022-07-30T01:37:04.453Z,409.89
2022-07-30T01:37:49.312Z,420.35
2022-07-30T01:38:34.997Z,419.40
2022-07-30T01:39:19.477Z,409.89
2022-07-30T01:40:04.591Z,423.21
2022-07-30T01:40:49.438Z,423.21
2022-07-30T01:41:34.511Z,408.94
2022-07-30T01:42:19.458Z,418.45
2022-07-30T01:43:04.622Z,399.43
2022-07-30T01:43:49.572Z,414.65
2022-07-30T01:44:34.617Z,404.19
2022-07-30T01:45:19.780Z,423.21
2022-07-30T01:46:04.994Z,424.16
2022-07-30T01:46:49.790Z,426.06
2022-07-30T01:47:34.847Z,424.16
2022-07-30T01:48:19.933Z,428.91
2022-07-30T01:49:05.131Z,433.67
2022-07-30T01:49:50.019Z,437.47
2022-07-30T01:50:35.073Z,406.09
2022-07-30T01:51:20.019Z,439.37
2022-07-30T01:52:05.184Z,394.68
2022-07-30T01:52:50.240Z,387.07
2022-07-30T01:53:35.296Z,410.84
2022-07-30T01:54:20.246Z,410.84
2022-07-30T01:55:05.507Z,417.50
2022-07-30T01:55:50.364Z,416.55
2022-07-30T01:56:35.447Z,411.79
2022-07-30T01:57:20.343Z,416.55
2022-07-30T01:58:05.529Z,418.45
2022-07-30T01:58:50.587Z,393.72
2022-07-30T01:59:35.642Z,419.40
2022-07-30T02:00:20.549Z,417.50
2022-07-30T02:01:06.221Z,407.04
2022-07-30T02:01:50.846Z,425.11
2022-07-30T02:02:35.874Z,401.33
2022-07-30T02:03:21.988Z,429.86
2022-07-30T02:04:06.045Z,411.79
2022-07-30T02:04:51.143Z,407.04
2022-07-30T02:05:36.200Z,409.89
2022-07-30T02:06:21.308Z,415.60
2022-07-30T02:07:06.437Z,399.43
2022-07-30T02:07:51.264Z,397.53
2022-07-30T02:08:36.324Z,413.42
2022-07-30T02:09:21.379Z,412.75
2022-07-30T02:10:06.507Z,411.79
2022-07-30T02:10:51.489Z,399.43
2022-07-30T02:11:36.661Z,393.72
2022-07-30T02:12:21.627Z,397.56
2022-07-30T02:13:06.778Z,430.81
2022-07-30T02:13:51.715Z,423.21
2022-07-30T02:14:36.889Z,410.62
2022-07-30T02:15:21.940Z,407.04
2022-07-30T02:16:07.025Z,434.62
2022-07-30T02:16:51.941Z,407.04
2022-07-30T02:17:39.769Z,403.24
2022-07-30T02:18:23.779Z,418.45
2022-07-30T02:19:07.314Z,410.84
2022-07-30T02:19:52.171Z,423.21
2022-07-30T02:20:38.475Z,424.16
2022-07-30T02:21:22.288Z,416.55
2022-07-30T02:22:08.675Z,407.99
2022-07-30T02:22:52.498Z,407.04
2022-07-30T02:23:37.452Z,420.35
2022-07-30T02:24:22.508Z,404.19
2022-07-30T02:25:07.666Z,402.28
2022-07-30T02:25:52.624Z,398.48
2022-07-30T02:26:37.701Z,419.40
2022-07-30T02:27:22.732Z,419.40
2022-07-30T02:28:08.213Z,393.72
2022-07-30T02:28:52.951Z,428.91
2022-07-30T02:29:37.905Z,400.38
2022-07-30T02:30:22.867Z,401.33
2022-07-30T02:31:17.567Z,384.49
2022-07-30T02:31:53.012Z,389.92
2022-07-30T02:32:38.130Z,416.22
2022-07-30T02:33:23.287Z,396.58
2022-07-30T02:34:08.345Z,404.19
2022-07-30T02:34:53.258Z,406.09
2022-07-30T02:35:38.352Z,410.84
2022-07-30T02:36:23.304Z,404.19
2022-07-30T02:37:08.466Z,419.40
2022-07-30T02:37:53.523Z,411.79
2022-07-30T02:38:38.602Z,414.65
2022-07-30T02:39:23.635Z,414.65
2022-07-30T02:40:08.695Z,393.72
2022-07-30T02:40:53.746Z,417.50
2022-07-30T02:41:38.801Z,404.19
2022-07-30T02:42:23.859Z,402.28
2022-07-30T02:43:08.913Z,396.58
2022-07-30T02:43:53.971Z,409.69
2022-07-30T02:44:39.045Z,424.16
2022-07-30T02:45:24.085Z,408.94
2022-07-30T02:46:09.247Z,381.36
2022-07-30T02:46:54.276Z,406.09
2022-07-30T02:47:39.253Z,389.92
2022-07-30T02:48:34.277Z,408.94
2022-07-30T02:49:09.402Z,410.84
2022-07-30T02:49:54.319Z,386.12
2022-07-30T02:50:39.487Z,401.33
2022-07-30T02:51:24.607Z,387.07
2022-07-30T02:52:09.531Z,385.17
2022-07-30T02:52:54.610Z,385.17
2022-07-30T02:53:39.606Z,391.82
2022-07-30T02:54:24.663Z,389.92
2022-07-30T02:55:09.650Z,387.07
2022-07-30T02:55:54.793Z,401.33
2022-07-30T02:56:39.830Z,403.24
2022-07-30T02:57:24.826Z,384.21
2022-07-30T02:58:10.058Z,394.68
2022-07-30T02:58:54.998Z,413.70
2022-07-30T02:59:39.951Z,398.48
2022-07-30T03:00:25.135Z,395.69
2022-07-30T03:01:10.207Z,399.43
2022-07-30T03:01:55.299Z,403.24
2022-07-30T03:02:40.183Z,400.36
2022-07-30T03:03:25.138Z,400.38
2022-07-30T03:04:10.293Z,404.19
2022-07-30T03:04:55.380Z,407.99
2022-07-30T03:05:40.404Z,410.84
2022-07-30T03:06:25.471Z,389.92
2022-07-30T03:07:10.783Z,409.89
2022-07-30T03:07:55.611Z,411.56
2022-07-30T03:08:40.525Z,407.99
2022-07-30T03:09:25.687Z,405.14
2022-07-30T03:10:10.953Z,394.68
2022-07-30T03:10:55.806Z,381.36
2022-07-30T03:11:40.773Z,382.31
2022-07-30T03:12:25.911Z,384.21
2022-07-30T03:13:10.864Z,380.41
2022-07-30T03:13:56.033Z,399.43
2022-07-30T03:14:40.980Z,389.92
2022-07-30T03:15:26.139Z,389.92
2022-07-30T03:16:11.116Z,395.63
2022-07-30T03:16:56.151Z,397.53
2022-07-30T03:17:41.205Z,381.36
2022-07-30T03:18:26.262Z,388.97
2022-07-30T03:19:11.321Z,392.77
2022-07-30T03:19:56.369Z,389.92
2022-07-30T03:20:41.434Z,377.03
2022-07-30T03:21:26.524Z,399.43
2022-07-30T03:22:11.648Z,395.63
2022-07-30T03:22:56.605Z,395.63
2022-07-30T03:23:41.656Z,387.07
2022-07-30T03:24:26.713Z,360.23
2022-07-30T03:25:11.771Z,393.72
2022-07-30T03:25:56.851Z,397.53
2022-07-30T03:26:41.921Z,375.66
2022-07-30T03:27:26.938Z,406.09
2022-07-30T03:28:12.101Z,403.24
2022-07-30T03:28:57.049Z,398.48
2022-07-30T03:29:41.985Z,389.92
2022-07-30T03:30:27.165Z,371.85
2022-07-30T03:31:12.288Z,388.97
2022-07-30T03:31:57.347Z,382.31
2022-07-30T03:32:43.029Z,364.24
2022-07-30T03:33:38.388Z,378.51
2022-07-30T03:34:12.781Z,372.80
2022-07-30T03:34:57.399Z,395.63
2022-07-30T03:35:42.556Z,372.80
2022-07-30T03:36:27.624Z,395.63
2022-07-30T03:37:12.463Z,408.94
2022-07-30T03:37:57.560Z,405.14
2022-07-30T03:38:42.781Z,407.04
2022-07-30T03:39:27.734Z,361.16
2022-07-30T03:40:12.801Z,383.26
2022-07-30T03:40:57.851Z,397.53
2022-07-30T03:41:42.920Z,390.87
2022-07-30T03:42:28.096Z,398.48
2022-07-30T03:43:32.636Z,377.03
2022-07-30T03:43:58.179Z,375.66
2022-07-30T03:44:43.240Z,396.58
2022-07-30T03:45:28.220Z,385.17
2022-07-30T03:46:13.600Z,374.70
2022-07-30T03:46:58.658Z,371.85
2022-07-30T03:47:43.465Z,385.17
2022-07-30T03:48:28.436Z,393.72
2022-07-30T03:49:13.626Z,388.97
2022-07-30T03:49:58.639Z,397.53
2022-07-30T03:50:43.525Z,397.53
2022-07-30T03:51:32.993Z,381.36
2022-07-30T03:52:13.802Z,381.36
2022-07-30T03:52:58.759Z,395.63
2022-07-30T03:53:43.816Z,415.60
2022-07-30T03:54:28.872Z,401.33
2022-07-30T03:55:13.923Z,404.19
2022-07-30T03:55:58.982Z,393.72
2022-07-30T03:56:44.049Z,397.53
2022-07-30T03:57:29.094Z,400.38
2022-07-30T03:58:14.159Z,415.60
2022-07-30T03:58:59.313Z,408.94
2022-07-30T03:59:44.371Z,374.70
2022-07-30T04:00:29.323Z,388.97
2022-07-30T04:01:14.375Z,385.17
2022-07-30T04:01:59.478Z,385.17
2022-07-30T04:02:44.510Z,410.84
2022-07-30T04:03:29.508Z,403.24
2022-07-30T04:04:14.510Z,412.75
2022-07-30T04:04:59.661Z,405.14
2022-07-30T04:05:44.651Z,392.89
2022-07-30T04:06:29.810Z,390.87
2022-07-30T04:07:14.832Z,388.23
2022-07-30T04:07:59.778Z,386.12
2022-07-30T04:08:44.736Z,411.79
2022-07-30T04:09:29.892Z,391.82
2022-07-30T04:10:15.055Z,411.79
2022-07-30T04:11:00.006Z,390.09
2022-07-30T04:11:45.068Z,398.48
2022-07-30T04:12:30.118Z,400.38
2022-07-30T04:13:15.183Z,411.79
2022-07-30T04:14:00.272Z,418.45
2022-07-30T04:14:45.394Z,407.04
2022-07-30T04:16:05.860Z,393.72
2022-07-30T04:16:39.783Z,411.79
2022-07-30T04:17:00.662Z,407.04
2022-07-30T04:17:45.522Z,422.26
2022-07-30T04:18:30.476Z,415.60
2022-07-30T04:19:15.632Z,395.63
2022-07-30T04:20:00.686Z,408.94
2022-07-30T04:20:45.844Z,421.30
2022-07-30T04:21:30.795Z,402.28
2022-07-30T04:22:15.745Z,413.70
2022-07-30T04:23:00.770Z,388.02
2022-07-30T04:24:02.334Z,400.38
2022-07-30T04:24:31.018Z,394.68
2022-07-30T04:25:18.507Z,406.09
2022-07-30T04:26:01.133Z,397.53
2022-07-30T04:26:46.187Z,411.79
2022-07-30T04:27:31.423Z,398.48
2022-07-30T04:28:16.299Z,411.79
2022-07-30T04:29:01.422Z,404.19
2022-07-30T04:29:46.423Z,407.83
2022-07-30T04:30:31.370Z,403.24
2022-07-30T04:31:16.574Z,405.14
2022-07-30T04:32:01.691Z,402.28
2022-07-30T04:32:46.579Z,407.04
2022-07-30T04:33:31.702Z,403.24
2022-07-30T04:34:16.795Z,397.53
2022-07-30T04:35:02.044Z,398.48
2022-07-30T04:35:50.047Z,387.07
2022-07-30T04:36:31.925Z,407.04
2022-07-30T04:37:17.063Z,392.77
2022-07-30T04:38:01.979Z,407.04
2022-07-30T04:38:47.102Z,395.69
2022-07-30T04:39:32.050Z,408.94
2022-07-30T04:40:17.102Z,406.09
2022-07-30T04:41:02.159Z,408.94
2022-07-30T04:41:49.545Z,412.75
2022-07-30T04:42:32.268Z,410.84
2022-07-30T04:43:17.228Z,400.38
2022-07-30T04:44:02.533Z,389.92
2022-07-30T04:44:47.342Z,396.58
2022-07-30T04:45:32.304Z,394.68
2022-07-30T04:46:17.406Z,401.33
2022-07-30T04:47:03.064Z,395.63
2022-07-30T04:47:47.474Z,376.61
2022-07-30T04:48:32.520Z,408.94
2022-07-30T04:49:17.831Z,402.28
2022-07-30T04:50:02.668Z,405.14
2022-07-30T04:50:47.687Z,395.63
2022-07-30T04:51:32.745Z,381.36
2022-07-30T04:52:17.714Z,388.02
2022-07-30T04:53:02.886Z,390.87
2022-07-30T04:53:47.864Z,369.95
2022-07-30T04:54:32.973Z,393.72
2022-07-30T04:55:18.022Z,387.07
2022-07-30T04:56:03.189Z,391.82
2022-07-30T04:56:53.191Z,390.87
2022-07-30T04:57:33.195Z,364.24
2022-07-30T04:58:18.249Z,408.94
2022-07-30T04:59:03.415Z,396.58
2022-07-30T04:59:48.365Z,407.04
2022-07-30T05:00:35.738Z,388.02
2022-07-30T05:01:18.531Z,399.43
2022-07-30T05:02:03.607Z,394.68
2022-07-30T05:02:48.589Z,394.68
2022-07-30T05:03:33.552Z,397.53
2022-07-30T05:04:18.600Z,390.87
2022-07-30T05:05:03.924Z,399.43
2022-07-30T05:05:48.713Z,396.58
2022-07-30T05:06:33.769Z,396.58
2022-07-30T05:07:19.105Z,404.19
2022-07-30T05:08:04.122Z,392.77
2022-07-30T05:08:49.054Z,386.12
2022-07-30T05:09:33.995Z,399.43
2022-07-30T05:10:19.049Z,385.17
2022-07-30T05:11:04.104Z,391.82
2022-07-30T05:11:49.269Z,405.03
2022-07-30T05:12:34.258Z,393.72
2022-07-30T05:13:19.274Z,396.58
2022-07-30T05:14:04.436Z,395.63
2022-07-30T05:14:49.491Z,397.53
2022-07-30T05:15:36.037Z,396.58
2022-07-30T05:16:19.560Z,400.38
2022-07-30T05:17:04.818Z,373.75
2022-07-30T05:17:49.521Z,400.38
2022-07-30T05:18:34.671Z,396.58
2022-07-30T05:19:19.648Z,396.58
2022-07-30T05:20:04.793Z,406.09
2022-07-30T05:20:49.776Z,399.43
2022-07-30T05:21:34.800Z,406.09
2022-07-30T05:22:19.853Z,409.89
2022-07-30T05:23:04.906Z,418.45
2022-07-30T05:23:50.744Z,431.77
2022-07-30T05:24:34.917Z,387.07
2022-07-30T05:25:19.973Z,396.58
2022-07-30T05:26:05.203Z,396.58
2022-07-30T05:26:50.199Z,411.79
2022-07-30T05:27:35.040Z,400.38
2022-07-30T05:28:20.201Z,396.58
2022-07-30T05:29:07.091Z,391.82
2022-07-30T05:29:50.223Z,397.53
2022-07-30T05:30:35.174Z,400.38
2022-07-30T05:31:20.328Z,425.11
2022-07-30T05:32:05.490Z,417.16
2022-07-30T05:32:50.337Z,390.87
2022-07-30T05:33:40.892Z,389.92
2022-07-30T05:34:20.341Z,427.01
2022-07-30T05:35:05.402Z,404.19
2022-07-30T05:35:50.471Z,390.09
2022-07-30T05:36:35.477Z,402.28
2022-07-30T05:37:20.452Z,398.48
2022-07-30T05:38:05.783Z,398.48
2022-07-30T05:38:50.587Z,405.14
2022-07-30T05:39:35.754Z,399.43
2022-07-30T05:40:20.698Z,401.33
2022-07-30T05:41:05.754Z,401.33
2022-07-30T05:41:50.702Z,386.12
2022-07-30T05:42:36.030Z,395.63
2022-07-30T05:43:20.926Z,407.99
2022-07-30T05:44:06.082Z,417.50
2022-07-30T05:44:51.033Z,393.72
2022-07-30T05:45:36.093Z,411.79
2022-07-30T05:46:21.205Z,407.04
2022-07-30T05:47:06.410Z,407.99
2022-07-30T05:47:51.369Z,421.30
2022-07-30T05:48:36.313Z,416.55
2022-07-30T05:49:21.426Z,419.40
2022-07-30T05:50:06.737Z,387.29
2022-07-30T05:50:51.496Z,435.57
2022-07-30T05:51:36.544Z,423.21
2022-07-30T05:52:21.602Z,427.96
2022-07-30T05:53:06.655Z,412.75
2022-07-30T05:53:51.711Z,397.53
2022-07-30T05:54:36.769Z,414.65
2022-07-30T05:55:21.826Z,419.40
2022-07-30T05:56:06.981Z,404.19
2022-07-30T05:56:51.938Z,406.09
2022-07-30T05:57:37.111Z,411.79
2022-07-30T05:58:22.155Z,430.81
2022-07-30T05:59:07.111Z,428.36
2022-07-30T05:59:52.179Z,418.45
2022-07-30T06:00:37.324Z,411.79
2022-07-30T06:01:22.459Z,397.56
2022-07-30T06:02:07.440Z,415.60
2022-07-30T06:02:52.409Z,408.94
2022-07-30T06:03:37.565Z,427.01
2022-07-30T06:04:22.666Z,409.89
2022-07-30T06:05:07.762Z,401.33
2022-07-30T06:05:52.733Z,399.43
2022-07-30T06:06:37.776Z,415.60
2022-07-30T06:07:22.753Z,427.01
2022-07-30T06:08:08.097Z,389.92
2022-07-30T06:08:52.851Z,412.75
2022-07-30T06:09:37.895Z,408.94
2022-07-30T06:10:22.954Z,400.38
2022-07-30T06:11:08.219Z,393.72
2022-07-30T06:11:53.171Z,408.76
2022-07-30T06:12:38.023Z,414.65
2022-07-30T06:13:23.187Z,413.70
2022-07-30T06:14:08.250Z,405.14
2022-07-30T06:14:53.107Z,415.60
2022-07-30T06:15:38.181Z,399.43
2022-07-30T06:16:23.352Z,400.38
2022-07-30T06:17:08.564Z,408.94
2022-07-30T06:17:59.457Z,413.70
2022-07-30T06:18:38.577Z,427.96
2022-07-30T06:19:23.525Z,410.84
2022-07-30T06:20:08.789Z,405.14
2022-07-30T06:20:53.640Z,412.49
2022-07-30T06:22:05.301Z,416.55
2022-07-30T06:22:26.152Z,415.60
2022-07-30T06:23:08.924Z,415.60
2022-07-30T06:23:53.764Z,436.52
2022-07-30T06:24:38.825Z,423.69
2022-07-30T06:25:23.920Z,421.30
2022-07-30T06:26:08.829Z,429.86
2022-07-30T06:26:53.854Z,420.35
2022-07-30T06:27:39.857Z,427.01
2022-07-30T06:28:36.918Z,403.16
2022-07-30T06:29:09.058Z,405.14
2022-07-30T06:29:54.013Z,414.65
2022-07-30T06:30:39.022Z,416.22
2022-07-30T06:31:24.169Z,414.65
2022-07-30T06:32:09.179Z,415.29
2022-07-30T06:32:54.254Z,412.75
2022-07-30T06:33:39.289Z,421.30
2022-07-30T06:34:24.375Z,394.76
2022-07-30T06:35:09.405Z,442.23
2022-07-30T06:35:54.356Z,417.50
2022-07-30T06:36:39.519Z,416.55
2022-07-30T06:37:24.676Z,434.62
2022-07-30T06:38:09.633Z,430.22
2022-07-30T06:38:54.693Z,409.89
2022-07-30T06:39:56.710Z,434.62
2022-07-30T06:40:24.701Z,473.61
2022-07-30T06:41:09.758Z,433.67
2022-07-30T06:41:54.811Z,416.22
2022-07-30T06:42:39.971Z,430.81
2022-07-30T06:43:24.925Z,423.21
2022-07-30T06:44:10.089Z,417.50
2022-07-30T06:44:55.147Z,426.06
2022-07-30T06:45:40.099Z,424.16
2022-07-30T06:46:25.294Z,405.14
2022-07-30T06:47:10.477Z,422.26
2022-07-30T06:47:55.368Z,424.16
2022-07-30T06:48:40.331Z,447.93
2022-07-30T06:49:25.464Z,421.30
2022-07-30T06:50:10.428Z,424.16
2022-07-30T06:50:55.604Z,386.12
2022-07-30T06:51:40.441Z,427.01
2022-07-30T06:52:25.499Z,426.06
2022-07-30T06:53:10.560Z,407.99
2022-07-30T06:53:55.622Z,412.75
2022-07-30T06:54:40.669Z,439.37
2022-07-30T06:55:25.827Z,423.21
2022-07-30T06:56:10.888Z,423.21
2022-07-30T06:56:55.952Z,425.11
2022-07-30T06:57:42.616Z,423.21
2022-07-30T06:58:25.957Z,441.28
2022-07-30T06:59:11.009Z,433.67
2022-07-30T06:59:57.620Z,433.67
2022-07-30T07:00:41.126Z,428.91
2022-07-30T07:01:26.215Z,447.93
2022-07-30T07:02:11.250Z,438.42
2022-07-30T07:02:56.323Z,445.08
2022-07-30T07:03:41.508Z,425.11
2022-07-30T07:04:26.563Z,445.08
2022-07-30T07:05:11.465Z,426.06
2022-07-30T07:05:56.524Z,413.70
2022-07-30T07:06:41.574Z,425.11
2022-07-30T07:07:40.652Z,436.52
2022-07-30T07:08:11.731Z,411.79
2022-07-30T07:08:56.740Z,418.45
2022-07-30T07:09:44.726Z,404.19
2022-07-30T07:10:26.649Z,429.86
2022-07-30T07:11:11.707Z,431.77
2022-07-30T07:11:56.758Z,407.04
2022-07-30T07:12:41.828Z,423.21
2022-07-30T07:13:26.876Z,397.53
2022-07-30T07:14:12.047Z,414.65
2022-07-30T07:14:56.996Z,413.42
2022-07-30T07:15:42.061Z,404.19
2022-07-30T07:16:27.265Z,387.07
2022-07-30T07:17:12.190Z,406.09
2022-07-30T07:17:57.217Z,410.84
2022-07-30T07:18:42.289Z,410.84
2022-07-30T07:19:59.767Z,419.40
2022-07-30T07:20:12.306Z,424.62
2022-07-30T07:20:57.343Z,405.14
2022-07-30T07:21:42.399Z,390.87
2022-07-30T07:22:27.356Z,410.84
2022-07-30T07:23:12.670Z,394.68
2022-07-30T07:23:57.359Z,417.50
2022-07-30T07:24:42.519Z,413.70
2022-07-30T07:25:27.469Z,405.14
2022-07-30T07:26:12.524Z,408.94
2022-07-30T07:26:57.818Z,411.79
2022-07-30T07:27:42.742Z,419.40
2022-07-30T07:28:30.639Z,426.06
2022-07-30T07:29:12.646Z,419.40
2022-07-30T07:30:01.511Z,396.58
2022-07-30T07:30:42.775Z,393.72
2022-07-30T07:32:05.974Z,402.28
2022-07-30T07:32:12.826Z,399.43
2022-07-30T07:32:57.827Z,405.14
2022-07-30T07:33:42.893Z,410.84
2022-07-30T07:34:28.052Z,398.48
2022-07-30T07:35:12.998Z,414.65
2022-07-30T07:35:58.057Z,419.40
2022-07-30T07:36:43.225Z,421.30
2022-07-30T07:37:28.168Z,415.60
2022-07-30T07:38:13.330Z,397.53
2022-07-30T07:38:58.278Z,397.53
2022-07-30T07:39:43.338Z,407.99
2022-07-30T07:40:28.390Z,407.99
2022-07-30T07:41:13.450Z,396.58
2022-07-30T07:41:58.507Z,432.72
2022-07-30T07:42:43.563Z,413.70
2022-07-30T07:43:28.618Z,417.50
2022-07-30T07:44:13.688Z,417.50
2022-07-30T07:44:58.834Z,396.58
2022-07-30T07:45:43.830Z,412.75
2022-07-30T07:46:33.576Z,417.50
2022-07-30T07:47:13.705Z,402.28
2022-07-30T07:47:58.951Z,414.65
2022-07-30T07:48:44.040Z,421.30
2022-07-30T07:49:29.098Z,422.26
2022-07-30T07:50:14.229Z,416.55
2022-07-30T07:51:00.370Z,397.53
2022-07-30T07:51:47.386Z,389.16
2022-07-30T07:52:29.295Z,419.40
2022-07-30T07:53:14.255Z,435.57
2022-07-30T07:54:19.054Z,425.11
2022-07-30T07:54:44.359Z,415.60
2022-07-30T07:55:29.429Z,417.50
2022-07-30T07:56:14.471Z,419.40
2022-07-30T07:57:00.299Z,419.40
2022-07-30T07:57:44.481Z,443.18
2022-07-30T07:58:29.642Z,424.16
2022-07-30T07:59:14.595Z,415.29
2022-07-30T07:59:59.759Z,432.72
2022-07-30T08:00:44.743Z,427.96
2022-07-30T08:01:29.791Z,408.76
2022-07-30T08:02:14.891Z,429.86
2022-07-30T08:02:59.884Z,423.21
2022-07-30T08:03:44.933Z,400.38
2022-07-30T08:04:29.995Z,425.11
2022-07-30T08:05:15.053Z,402.23
2022-07-30T08:06:06.343Z,423.21
2022-07-30T08:06:45.164Z,380.76
2022-07-30T08:07:30.219Z,421.30
2022-07-30T08:08:15.382Z,404.19
2022-07-30T08:09:00.334Z,404.19
2022-07-30T08:09:45.454Z,399.43
2022-07-30T08:10:30.339Z,401.33
2022-07-30T08:11:15.498Z,427.96
2022-07-30T08:12:00.555Z,406.09
2022-07-30T08:12:45.512Z,403.24
2022-07-30T08:13:49.350Z,414.65
2022-07-30T08:14:15.729Z,398.48
2022-07-30T08:15:00.683Z,399.43
2022-07-30T08:15:45.766Z,411.79
2022-07-30T08:16:30.833Z,431.77
2022-07-30T08:17:16.032Z,416.55
2022-07-30T08:18:00.901Z,378.89
2022-07-30T08:18:45.959Z,408.94
2022-07-30T08:19:31.019Z,412.75
2022-07-30T08:20:15.994Z,402.23
2022-07-30T08:21:01.130Z,419.40
2022-07-30T08:21:46.187Z,423.21
2022-07-30T08:22:31.239Z,419.40
2022-07-30T08:23:16.298Z,413.70
2022-07-30T08:24:01.370Z,401.29
2022-07-30T08:24:46.529Z,409.89
2022-07-30T08:25:31.468Z,407.99
2022-07-30T08:26:16.527Z,404.19
2022-07-30T08:27:01.822Z,406.09
2022-07-30T08:27:46.636Z,407.04
2022-07-30T08:28:35.803Z,417.50
2022-07-30T08:29:17.360Z,398.48
2022-07-30T08:30:01.746Z,386.12
2022-07-30T08:30:46.784Z,425.11
2022-07-30T08:31:31.814Z,414.65
2022-07-30T08:32:16.871Z,419.40
2022-07-30T08:33:02.166Z,419.40
2022-07-30T08:33:46.984Z,396.58
2022-07-30T08:34:32.056Z,401.33
2022-07-30T08:35:16.993Z,400.38
2022-07-30T08:36:04.411Z,402.28
2022-07-30T08:36:47.229Z,401.29
2022-07-30T08:37:32.270Z,388.97
2022-07-30T08:38:17.438Z,406.09
2022-07-30T08:39:02.622Z,427.96
2022-07-30T08:39:47.438Z,418.45
2022-07-30T08:40:32.498Z,403.16
2022-07-30T08:41:17.577Z,418.45
2022-07-30T08:42:03.134Z,427.01
2022-07-30T08:42:47.670Z,417.50
2022-07-30T08:43:32.825Z,404.19
2022-07-30T08:44:17.779Z,401.33
2022-07-30T08:45:02.857Z,397.53
2022-07-30T08:45:47.885Z,417.16
2022-07-30T08:46:32.942Z,430.81
2022-07-30T08:47:18.002Z,406.09
2022-07-30T08:48:03.193Z,418.45
2022-07-30T08:48:48.112Z,417.50
2022-07-30T08:49:33.171Z,418.45
2022-07-30T08:50:18.230Z,416.55
2022-07-30T08:51:03.191Z,395.63
2022-07-30T08:51:48.341Z,408.94
2022-07-30T08:52:33.409Z,395.63
2022-07-30T08:53:18.452Z,389.16
2022-07-30T08:54:03.748Z,388.97
2022-07-30T08:54:48.671Z,407.04
2022-07-30T08:55:33.629Z,398.48
2022-07-30T08:56:18.679Z,408.94
2022-07-30T08:57:04.611Z,392.77
2022-07-30T08:57:48.792Z,399.43
2022-07-30T08:58:33.848Z,404.19
2022-07-30T08:59:19.008Z,403.24
2022-07-30T09:00:04.142Z,415.60
2022-07-30T09:00:49.100Z,401.29
2022-07-30T09:01:34.078Z,411.79
2022-07-30T09:02:27.818Z,400.38
2022-07-30T09:03:04.099Z,396.58
2022-07-30T09:03:49.034Z,398.48
2022-07-30T09:04:34.201Z,417.50
2022-07-30T09:05:19.148Z,416.55
2022-07-30T09:06:04.345Z,396.58
2022-07-30T09:06:49.381Z,399.43
2022-07-30T09:07:34.319Z,404.19
2022-07-30T09:08:19.458Z,376.97
2022-07-30T09:09:04.448Z,343.57
2022-07-30T09:09:49.520Z,358.39
2022-07-30T09:10:34.546Z,340.85
2022-07-30T09:11:19.608Z,360.06
2022-07-30T09:12:04.655Z,363.03
2022-07-30T09:12:49.715Z,361.34
2022-07-30T09:13:34.484Z,379.15
2022-07-30T09:14:19.731Z,365.58
2022-07-30T09:15:04.986Z,321.24
2022-07-30T09:15:49.843Z,347.53
2022-07-30T09:16:34.898Z,343.36
2022-07-30T09:17:19.978Z,340.28
2022-07-30T09:18:05.010Z,342.49
2022-07-30T09:18:50.065Z,348.95
2022-07-30T09:19:35.233Z,348.14
2022-07-30T09:20:20.282Z,338.16
2022-07-30T09:21:05.334Z,333.50
2022-07-30T09:21:50.289Z,326.50